sensor_id;sensor_type;location;lat;lon;timestamp;pressure;altitude;pressure_sealevel;temperature;humidity
67109;BME280;54027;50.786;7.058;2023-03-22T00:01:23;100712.25;;;9.49;85.08
67109;BME280;54027;50.786;7.058;2023-03-22T00:03:50;100710.50;;;9.50;85.93
67109;BME280;54027;50.786;7.058;2023-03-22T00:06:16;100711.34;;;9.50;85.63
67109;BME280;54027;50.786;7.058;2023-03-22T00:08:42;100704.50;;;9.48;85.29
67109;BME280;54027;50.786;7.058;2023-03-22T00:11:08;100708.81;;;9.46;85.66
67109;BME280;54027;50.786;7.058;2023-03-22T00:13:35;100705.34;;;9.48;86.31
67109;BME280;54027;50.786;7.058;2023-03-22T00:16:02;100704.50;;;9.48;86.30
67109;BME280;54027;50.786;7.058;2023-03-22T00:18:28;100708.78;;;9.52;85.44
67109;BME280;54027;50.786;7.058;2023-03-22T00:20:55;100701.91;;;9.51;85.98
67109;BME280;54027;50.786;7.058;2023-03-22T00:23:22;100696.75;;;9.49;86.26
67109;BME280;54027;50.786;7.058;2023-03-22T00:25:48;100692.47;;;9.48;86.84
67109;BME280;54027;50.786;7.058;2023-03-22T00:28:14;100691.59;;;9.48;86.88
67109;BME280;54027;50.786;7.058;2023-03-22T00:30:41;100685.53;;;9.53;86.46
67109;BME280;54027;50.786;7.058;2023-03-22T00:33:07;100687.28;;;9.57;87.13
67109;BME280;54027;50.786;7.058;2023-03-22T00:35:33;100679.44;;;9.71;86.91
67109;BME280;54027;50.786;7.058;2023-03-22T00:37:58;100682.06;;;9.70;86.33
67109;BME280;54027;50.786;7.058;2023-03-22T00:40:31;100673.44;;;9.67;86.81
67109;BME280;54027;50.786;7.058;2023-03-22T00:42:57;100671.72;;;9.70;86.93
67109;BME280;54027;50.786;7.058;2023-03-22T00:45:22;100666.56;;;9.70;87.18
67109;BME280;54027;50.786;7.058;2023-03-22T00:47:47;100666.53;;;9.71;87.11
67109;BME280;54027;50.786;7.058;2023-03-22T00:50:13;100664.81;;;9.72;87.54
67109;BME280;54027;50.786;7.058;2023-03-22T00:52:38;100662.25;;;9.73;86.87
67109;BME280;54027;50.786;7.058;2023-03-22T00:55:04;100654.50;;;9.73;86.28
67109;BME280;54027;50.786;7.058;2023-03-22T00:57:29;100653.56;;;9.83;86.36
67109;BME280;54027;50.786;7.058;2023-03-22T00:59:54;100644.97;;;9.80;86.34
67109;BME280;54027;50.786;7.058;2023-03-22T01:02:22;100641.53;;;9.81;86.50
67109;BME280;54027;50.786;7.058;2023-03-22T01:04:54;100640.69;;;9.79;86.16
67109;BME280;54027;50.786;7.058;2023-03-22T01:07:19;100638.91;;;9.87;85.92
67109;BME280;54027;50.786;7.058;2023-03-22T01:09:49;100638.06;;;9.83;86.37
67109;BME280;54027;50.786;7.058;2023-03-22T01:12:16;100633.81;;;9.78;86.48
67109;BME280;54027;50.786;7.058;2023-03-22T01:14:41;100626.09;;;9.76;86.88
67109;BME280;54027;50.786;7.058;2023-03-22T01:17:08;100619.22;;;9.72;86.70
67109;BME280;54027;50.786;7.058;2023-03-22T01:19:34;100624.44;;;9.66;86.70
67109;BME280;54027;50.786;7.058;2023-03-22T01:22:01;100622.72;;;9.65;87.61
67109;BME280;54027;50.786;7.058;2023-03-22T01:24:26;100618.44;;;9.64;87.64
67109;BME280;54027;50.786;7.058;2023-03-22T01:26:51;100622.72;;;9.63;87.66
67109;BME280;54027;50.786;7.058;2023-03-22T01:29:17;100620.16;;;9.63;86.96
67109;BME280;54027;50.786;7.058;2023-03-22T01:31:42;100617.53;;;9.70;87.53
67109;BME280;54027;50.786;7.058;2023-03-22T01:34:08;100619.19;;;9.74;87.52
67109;BME280;54027;50.786;7.058;2023-03-22T01:36:35;100613.06;;;9.88;86.84
67109;BME280;54027;50.786;7.058;2023-03-22T01:39:01;100613.00;;;9.94;85.54
67109;BME280;54027;50.786;7.058;2023-03-22T01:41:26;100609.56;;;9.95;86.45
67109;BME280;54027;50.786;7.058;2023-03-22T01:44:09;100613.84;;;9.99;86.13
67109;BME280;54027;50.786;7.058;2023-03-22T01:46:35;100611.25;;;10.02;86.13
67109;BME280;54027;50.786;7.058;2023-03-22T01:49:01;100611.25;;;10.02;85.81
67109;BME280;54027;50.786;7.058;2023-03-22T01:51:27;100614.66;;;10.06;85.65
67109;BME280;54027;50.786;7.058;2023-03-22T01:54:05;100600.81;;;10.13;84.89
67109;BME280;54027;50.786;7.058;2023-03-22T01:56:35;100606.84;;;10.13;85.35
67109;BME280;54027;50.786;7.058;2023-03-22T01:59:01;100606.84;;;10.13;84.78
67109;BME280;54027;50.786;7.058;2023-03-22T02:01:28;100597.41;;;10.11;85.63
67109;BME280;54027;50.786;7.058;2023-03-22T02:04:00;100594.84;;;10.08;84.89
67109;BME280;54027;50.786;7.058;2023-03-22T02:06:27;100592.31;;;10.00;85.58
67109;BME280;54027;50.786;7.058;2023-03-22T02:08:54;100584.59;;;9.97;86.04
67109;BME280;54027;50.786;7.058;2023-03-22T02:11:34;100585.44;;;9.98;85.55
67109;BME280;54027;50.786;7.058;2023-03-22T02:14:24;100593.22;;;9.96;85.89
67109;BME280;54027;50.786;7.058;2023-03-22T02:28:04;100575.41;;;9.61;86.87
67109;BME280;54027;50.786;7.058;2023-03-22T02:33:33;100577.34;;;9.31;88.57
67109;BME280;54027;50.786;7.058;2023-03-22T02:47:00;100561.13;;;9.10;90.56
67109;BME280;54027;50.786;7.058;2023-03-22T02:52:01;100559.41;;;9.08;90.01
67109;BME280;54027;50.786;7.058;2023-03-22T02:54:35;100550.84;;;9.07;91.44
67109;BME280;54027;50.786;7.058;2023-03-22T02:57:15;100545.66;;;9.13;90.49
67109;BME280;54027;50.786;7.058;2023-03-22T02:59:44;100551.66;;;9.16;90.99
67109;BME280;54027;50.786;7.058;2023-03-22T03:02:13;100540.41;;;9.29;90.41
67109;BME280;54027;50.786;7.058;2023-03-22T03:04:45;100542.97;;;9.27;90.04
67109;BME280;54027;50.786;7.058;2023-03-22T03:07:13;100542.09;;;9.31;90.56
67109;BME280;54027;50.786;7.058;2023-03-22T03:09:41;100542.00;;;9.42;90.07
67109;BME280;54027;50.786;7.058;2023-03-22T03:12:12;100536.84;;;9.42;89.66
67109;BME280;54027;50.786;7.058;2023-03-22T03:14:38;100533.44;;;9.38;89.30
67109;BME280;54027;50.786;7.058;2023-03-22T03:27:39;100528.28;;;9.37;90.47
67109;BME280;54027;50.786;7.058;2023-03-22T03:30:17;100525.75;;;9.31;91.11
67109;BME280;54027;50.786;7.058;2023-03-22T03:32:52;100524.00;;;9.36;90.79
67109;BME280;54027;50.786;7.058;2023-03-22T03:35:21;100530.00;;;9.35;91.01
67109;BME280;54027;50.786;7.058;2023-03-22T03:40:29;100532.69;;;9.26;91.28
67109;BME280;54027;50.786;7.058;2023-03-22T03:42:58;100531.84;;;9.22;91.29
67109;BME280;54027;50.786;7.058;2023-03-22T03:45:25;100533.56;;;9.22;91.45
67109;BME280;54027;50.786;7.058;2023-03-22T03:47:52;100533.53;;;9.23;91.19
67109;BME280;54027;50.786;7.058;2023-03-22T03:50:22;100534.38;;;9.27;90.55
67109;BME280;54027;50.786;7.058;2023-03-22T03:52:47;100535.25;;;9.26;91.06
67109;BME280;54027;50.786;7.058;2023-03-22T03:55:13;100533.56;;;9.22;91.13
67109;BME280;54027;50.786;7.058;2023-03-22T03:57:38;100536.97;;;9.24;91.55
67109;BME280;54027;50.786;7.058;2023-03-22T04:00:04;100539.56;;;9.21;91.19
67109;BME280;54027;50.786;7.058;2023-03-22T04:02:30;100543.00;;;9.26;91.41
67109;BME280;54027;50.786;7.058;2023-03-22T04:04:55;100544.78;;;9.16;91.20
67109;BME280;54027;50.786;7.058;2023-03-22T04:07:21;100545.66;;;9.10;91.43
67109;BME280;54027;50.786;7.058;2023-03-22T04:09:46;100543.94;;;9.08;92.04
67109;BME280;54027;50.786;7.058;2023-03-22T04:12:11;100545.72;;;9.01;92.09
67109;BME280;54027;50.786;7.058;2023-03-22T04:14:37;100551.78;;;8.96;92.23
67109;BME280;54027;50.786;7.058;2023-03-22T04:17:02;100544.91;;;8.89;92.83
67109;BME280;54027;50.786;7.058;2023-03-22T04:19:28;100548.34;;;8.89;92.96
67109;BME280;54027;50.786;7.058;2023-03-22T04:21:53;100526.88;;;8.89;93.11
67109;BME280;54027;50.786;7.058;2023-03-22T04:24:19;100538.91;;;8.85;92.51
67109;BME280;54027;50.786;7.058;2023-03-22T04:26:45;100545.81;;;8.80;92.69
67109;BME280;54027;50.786;7.058;2023-03-22T04:29:11;100538.97;;;8.73;93.23
67109;BME280;54027;50.786;7.058;2023-03-22T04:31:36;100545.00;;;8.71;94.11
67109;BME280;54027;50.786;7.058;2023-03-22T04:34:03;100542.44;;;8.68;94.29
67109;BME280;54027;50.786;7.058;2023-03-22T04:36:32;100541.59;;;8.69;93.90
67109;BME280;54027;50.786;7.058;2023-03-22T04:39:02;100542.44;;;8.71;93.99
67109;BME280;54027;50.786;7.058;2023-03-22T04:41:29;100534.72;;;8.66;94.02
67109;BME280;54027;50.786;7.058;2023-03-22T04:43:55;100539.03;;;8.63;94.26
67109;BME280;54027;50.786;7.058;2023-03-22T04:46:22;100534.78;;;8.57;94.34
67109;BME280;54027;50.786;7.058;2023-03-22T04:48:47;100532.19;;;8.57;95.04
67109;BME280;54027;50.786;7.058;2023-03-22T04:51:12;100535.63;;;8.53;94.53
67109;BME280;54027;50.786;7.058;2023-03-22T04:53:38;100526.16;;;8.55;94.57
67109;BME280;54027;50.786;7.058;2023-03-22T04:56:05;100523.59;;;8.55;95.68
67109;BME280;54027;50.786;7.058;2023-03-22T04:58:33;100524.44;;;8.62;95.39
67109;BME280;54027;50.786;7.058;2023-03-22T05:00:58;100509.81;;;8.61;95.43
67109;BME280;54027;50.786;7.058;2023-03-22T05:03:24;100518.41;;;8.64;95.13
67109;BME280;54027;50.786;7.058;2023-03-22T05:05:53;100507.22;;;8.67;95.59
67109;BME280;54027;50.786;7.058;2023-03-22T05:08:23;100505.47;;;8.78;95.72
67109;BME280;54027;50.786;7.058;2023-03-22T05:10:55;100505.38;;;8.91;95.31
67109;BME280;54027;50.786;7.058;2023-03-22T05:13:23;100495.00;;;9.05;94.77
67109;BME280;54027;50.786;7.058;2023-03-22T05:15:50;100512.09;;;9.20;94.09
67109;BME280;54027;50.786;7.058;2023-03-22T05:18:17;100517.13;;;9.32;93.34
67109;BME280;54027;50.786;7.058;2023-03-22T05:20:45;100505.88;;;9.45;92.14
67109;BME280;54027;50.786;7.058;2023-03-22T05:23:11;100509.31;;;9.45;91.62
67109;BME280;54027;50.786;7.058;2023-03-22T05:25:37;100506.72;;;9.45;91.90
67109;BME280;54027;50.786;7.058;2023-03-22T05:28:03;100506.75;;;9.41;91.47
67109;BME280;54027;50.786;7.058;2023-03-22T05:30:29;100495.66;;;9.31;91.75
67109;BME280;54027;50.786;7.058;2023-03-22T05:33:03;100493.06;;;9.33;92.13
67109;BME280;54027;50.786;7.058;2023-03-22T05:35:30;100495.66;;;9.34;91.93
67109;BME280;54027;50.786;7.058;2023-03-22T05:37:56;100492.19;;;9.37;91.19
67109;BME280;54027;50.786;7.058;2023-03-22T05:40:23;100496.50;;;9.32;91.79
67109;BME280;54027;50.786;7.058;2023-03-22T05:42:49;100504.28;;;9.27;91.94
67109;BME280;54027;50.786;7.058;2023-03-22T05:45:14;100500.81;;;9.30;91.91
67109;BME280;54027;50.786;7.058;2023-03-22T05:47:40;100511.94;;;9.35;91.64
67109;BME280;54027;50.786;7.058;2023-03-22T05:50:07;100511.88;;;9.44;91.35
67109;BME280;54027;50.786;7.058;2023-03-22T05:52:33;100521.22;;;9.64;90.36
67109;BME280;54027;50.786;7.058;2023-03-22T05:54:59;100515.94;;;9.78;89.74
67109;BME280;54027;50.786;7.058;2023-03-22T05:57:25;100516.72;;;9.88;89.70
67109;BME280;54027;50.786;7.058;2023-03-22T05:59:51;100520.06;;;9.96;88.74
67109;BME280;54027;50.786;7.058;2023-03-22T06:02:18;100513.97;;;10.04;88.02
67109;BME280;54027;50.786;7.058;2023-03-22T06:04:45;100510.44;;;10.11;87.84
67109;BME280;54027;50.786;7.058;2023-03-22T06:07:11;100513.78;;;10.18;87.24
67109;BME280;54027;50.786;7.058;2023-03-22T06:09:36;100501.69;;;10.24;87.40
67109;BME280;54027;50.786;7.058;2023-03-22T06:12:02;100514.53;;;10.31;86.66
67109;BME280;54027;50.786;7.058;2023-03-22T06:14:27;100511.91;;;10.34;86.70
67109;BME280;54027;50.786;7.058;2023-03-22T06:16:52;100506.69;;;10.38;86.35
67109;BME280;54027;50.786;7.058;2023-03-22T06:19:18;100504.88;;;10.45;85.86
67109;BME280;54027;50.786;7.058;2023-03-22T06:21:43;100509.09;;;10.53;85.30
67109;BME280;54027;50.786;7.058;2023-03-22T06:24:09;100505.47;;;10.66;85.49
67109;BME280;54027;50.786;7.058;2023-03-22T06:26:34;100506.13;;;10.80;85.24
67109;BME280;54027;50.786;7.058;2023-03-22T06:28:59;100510.31;;;10.89;83.84
67109;BME280;54027;50.786;7.058;2023-03-22T06:31:28;100501.66;;;10.95;83.75
67109;BME280;54027;50.786;7.058;2023-03-22T06:33:53;100501.56;;;11.01;83.67
67109;BME280;54027;50.786;7.058;2023-03-22T06:36:19;100500.63;;;11.05;83.44
67109;BME280;54027;50.786;7.058;2023-03-22T06:38:44;100511.84;;;11.07;83.34
67109;BME280;54027;50.786;7.058;2023-03-22T06:41:10;100507.53;;;11.06;83.28
67109;BME280;54027;50.786;7.058;2023-03-22T06:43:35;100511.78;;;11.08;83.28
67109;BME280;54027;50.786;7.058;2023-03-22T06:46:01;100512.56;;;11.13;83.14
67109;BME280;54027;50.786;7.058;2023-03-22T06:48:26;100514.16;;;11.22;82.09
67109;BME280;54027;50.786;7.058;2023-03-22T06:50:52;100512.31;;;11.31;82.14
67109;BME280;54027;50.786;7.058;2023-03-22T06:53:17;100508.69;;;11.45;81.52
67109;BME280;54027;50.786;7.058;2023-03-22T06:55:43;100505.06;;;11.55;81.11
67109;BME280;54027;50.786;7.058;2023-03-22T06:58:08;100512.75;;;11.59;80.92
67109;BME280;54027;50.786;7.058;2023-03-22T07:00:33;100512.72;;;11.61;80.29
67109;BME280;54027;50.786;7.058;2023-03-22T07:02:59;100516.94;;;11.66;80.78
67109;BME280;54027;50.786;7.058;2023-03-22T07:05:25;100504.75;;;11.74;80.11
67109;BME280;54027;50.786;7.058;2023-03-22T07:07:50;100506.31;;;11.83;80.40
67109;BME280;54027;50.786;7.058;2023-03-22T07:10:16;100501.09;;;11.84;80.02
67109;BME280;54027;50.786;7.058;2023-03-22T07:12:41;100504.47;;;11.88;80.19
67109;BME280;54027;50.786;7.058;2023-03-22T07:15:07;100497.47;;;11.95;80.44
67109;BME280;54027;50.786;7.058;2023-03-22T07:17:32;100494.72;;;12.02;79.64
67109;BME280;54027;50.786;7.058;2023-03-22T07:19:58;100491.03;;;12.15;79.73
67109;BME280;54027;50.786;7.058;2023-03-22T07:22:23;100490.81;;;12.26;79.12
67109;BME280;54027;50.786;7.058;2023-03-22T07:24:49;100479.50;;;12.31;78.22
67109;BME280;54027;50.786;7.058;2023-03-22T07:27:15;100474.13;;;12.40;77.94
67109;BME280;54027;50.786;7.058;2023-03-22T07:29:41;100476.44;;;12.53;77.56
67109;BME280;54027;50.786;7.058;2023-03-22T07:32:06;100468.38;;;12.66;77.24
67109;BME280;54027;50.786;7.058;2023-03-22T07:34:31;100466.47;;;12.74;76.75
67109;BME280;54027;50.786;7.058;2023-03-22T07:36:57;100460.34;;;12.78;75.97
67109;BME280;54027;50.786;7.058;2023-03-22T07:39:23;100458.47;;;12.83;75.17
67109;BME280;54027;50.786;7.058;2023-03-22T07:41:53;100437.59;;;12.89;74.25
67109;BME280;54027;50.786;7.058;2023-03-22T07:44:18;100435.63;;;13.00;73.06
67109;BME280;54027;50.786;7.058;2023-03-22T07:46:44;100424.09;;;13.14;72.65
67109;BME280;54027;50.786;7.058;2023-03-22T07:49:09;100415.09;;;13.27;71.76
67109;BME280;54027;50.786;7.058;2023-03-22T07:51:35;100394.09;;;13.36;70.42
67109;BME280;54027;50.786;7.058;2023-03-22T07:54:01;100403.22;;;13.50;70.01
67109;BME280;54027;50.786;7.058;2023-03-22T07:56:26;100401.41;;;13.54;69.52
67109;BME280;54027;50.786;7.058;2023-03-22T07:58:52;100368.56;;;13.53;67.22
67109;BME280;54027;50.786;7.058;2023-03-22T08:01:17;100385.03;;;13.52;68.57
67109;BME280;54027;50.786;7.058;2023-03-22T08:03:42;100388.66;;;13.45;68.95
67109;BME280;54027;50.786;7.058;2023-03-22T08:06:08;100394.00;;;13.40;68.69
67109;BME280;54027;50.786;7.058;2023-03-22T08:08:35;100394.31;;;13.28;68.16
67109;BME280;54027;50.786;7.058;2023-03-22T08:11:04;100395.34;;;13.21;68.43
67109;BME280;54027;50.786;7.058;2023-03-22T08:13:30;100400.72;;;13.14;68.92
67109;BME280;54027;50.786;7.058;2023-03-22T08:15:55;100412.91;;;13.12;69.01
67109;BME280;54027;50.786;7.058;2023-03-22T08:18:21;100384.19;;;13.18;67.79
67109;BME280;54027;50.786;7.058;2023-03-22T08:20:54;100360.66;;;13.24;66.79
67109;BME280;54027;50.786;7.058;2023-03-22T08:23:21;100361.91;;;13.43;66.83
67109;BME280;54027;50.786;7.058;2023-03-22T08:25:47;100356.22;;;13.61;66.44
67109;BME280;54027;50.786;7.058;2023-03-22T08:28:12;100348.88;;;13.77;65.89
67109;BME280;54027;50.786;7.058;2023-03-22T08:30:40;100324.09;;;13.94;64.47
67109;BME280;54027;50.786;7.058;2023-03-22T08:33:06;100317.53;;;14.10;63.99
67109;BME280;54027;50.786;7.058;2023-03-22T08:35:32;100300.63;;;14.25;63.26
67109;BME280;54027;50.786;7.058;2023-03-22T08:37:57;100297.03;;;14.29;63.28
67109;BME280;54027;50.786;7.058;2023-03-22T08:40:23;100296.25;;;14.27;62.96
67109;BME280;54027;50.786;7.058;2023-03-22T08:42:49;100300.53;;;14.28;62.23
67109;BME280;54027;50.786;7.058;2023-03-22T08:45:15;100263.28;;;14.28;61.07
67109;BME280;54027;50.786;7.058;2023-03-22T08:47:40;100287.50;;;14.30;61.80
67109;BME280;54027;50.786;7.058;2023-03-22T08:50:07;100271.94;;;14.28;60.56
67109;BME280;54027;50.786;7.058;2023-03-22T08:52:32;100276.66;;;14.45;60.41
67109;BME280;54027;50.786;7.058;2023-03-22T08:54:58;100261.38;;;14.60;60.04
67109;BME280;54027;50.786;7.058;2023-03-22T08:57:23;100262.50;;;14.80;59.44
67109;BME280;54027;50.786;7.058;2023-03-22T08:59:55;100254.38;;;14.89;58.77
67109;BME280;54027;50.786;7.058;2023-03-22T09:02:22;100255.03;;;14.95;58.17
67109;BME280;54027;50.786;7.058;2023-03-22T09:04:48;100234.13;;;14.97;56.57
67109;BME280;54027;50.786;7.058;2023-03-22T09:07:13;100257.22;;;15.07;57.49
67109;BME280;54027;50.786;7.058;2023-03-22T09:09:39;100274.34;;;15.38;58.33
67109;BME280;54027;50.786;7.058;2023-03-22T09:12:04;100251.75;;;15.63;57.08
67109;BME280;54027;50.786;7.058;2023-03-22T09:14:30;100269.69;;;15.70;58.38
67109;BME280;54027;50.786;7.058;2023-03-22T09:16:55;100223.88;;;15.65;56.54
67109;BME280;54027;50.786;7.058;2023-03-22T09:19:20;100227.59;;;15.58;57.22
67109;BME280;54027;50.786;7.058;2023-03-22T09:21:46;100226.34;;;15.45;56.26
67109;BME280;54027;50.786;7.058;2023-03-22T09:24:12;100230.38;;;15.29;56.20
67109;BME280;54027;50.786;7.058;2023-03-22T09:26:37;100250.22;;;15.08;57.07
67109;BME280;54027;50.786;7.058;2023-03-22T09:29:03;100228.50;;;14.84;56.01
67109;BME280;54027;50.786;7.058;2023-03-22T09:31:28;100246.09;;;14.78;56.52
67109;BME280;54027;50.786;7.058;2023-03-22T09:33:54;100254.34;;;14.64;57.50
67109;BME280;54027;50.786;7.058;2023-03-22T09:36:19;100265.91;;;14.55;58.37
67109;BME280;54027;50.786;7.058;2023-03-22T09:38:45;100232.75;;;14.62;56.81
67109;BME280;54027;50.786;7.058;2023-03-22T09:41:23;100245.28;;;14.76;56.72
67109;BME280;54027;50.786;7.058;2023-03-22T09:43:57;100212.75;;;14.89;55.71
67109;BME280;54027;50.786;7.058;2023-03-22T09:46:33;100207.03;;;15.02;55.23
67109;BME280;54027;50.786;7.058;2023-03-22T09:49:03;100221.38;;;15.14;55.94
67109;BME280;54027;50.786;7.058;2023-03-22T09:51:42;100209.44;;;15.32;55.58
67109;BME280;54027;50.786;7.058;2023-03-22T09:54:14;100199.72;;;15.60;54.74
67109;BME280;54027;50.786;7.058;2023-03-22T09:56:41;100184.19;;;15.80;54.27
67109;BME280;54027;50.786;7.058;2023-03-22T09:59:21;100197.78;;;15.66;54.58
67109;BME280;54027;50.786;7.058;2023-03-22T10:01:57;100191.75;;;15.64;54.24
67109;BME280;54027;50.786;7.058;2023-03-22T10:04:46;100174.25;;;15.68;53.69
67109;BME280;54027;50.786;7.058;2023-03-22T10:10:28;100184.97;;;15.59;53.44
67109;BME280;54027;50.786;7.058;2023-03-22T10:15:42;100201.31;;;15.87;54.23
67109;BME280;54027;50.786;7.058;2023-03-22T10:18:18;100194.66;;;16.02;54.14
67109;BME280;54027;50.786;7.058;2023-03-22T10:20:48;100188.66;;;16.00;53.34
67109;BME280;54027;50.786;7.058;2023-03-22T10:23:25;100198.75;;;16.07;54.04
67109;BME280;54027;50.786;7.058;2023-03-22T10:25:53;100184.75;;;16.10;52.57
67109;BME280;54027;50.786;7.058;2023-03-22T10:28:24;100166.69;;;16.05;52.18
67109;BME280;54027;50.786;7.058;2023-03-22T10:30:55;100174.97;;;16.15;52.43
67109;BME280;54027;50.786;7.058;2023-03-22T10:36:33;100156.41;;;16.22;51.45
67109;BME280;54027;50.786;7.058;2023-03-22T10:39:08;100171.53;;;16.14;51.68
67109;BME280;54027;50.786;7.058;2023-03-22T10:41:36;100153.34;;;16.13;51.58
67109;BME280;54027;50.786;7.058;2023-03-22T10:44:04;100168.38;;;16.06;51.94
67109;BME280;54027;50.786;7.058;2023-03-22T10:46:35;100149.72;;;16.17;51.25
67109;BME280;54027;50.786;7.058;2023-03-22T10:49:03;100136.03;;;16.32;50.68
67109;BME280;54027;50.786;7.058;2023-03-22T10:51:34;100121.75;;;16.61;49.70
67109;BME280;54027;50.786;7.058;2023-03-22T10:54:03;100130.34;;;16.83;49.80
67109;BME280;54027;50.786;7.058;2023-03-22T10:56:30;100123.13;;;17.08;48.79
67109;BME280;54027;50.786;7.058;2023-03-22T10:58:55;100125.53;;;17.31;48.49
67109;BME280;54027;50.786;7.058;2023-03-22T11:01:29;100127.81;;;17.39;48.68
67109;BME280;54027;50.786;7.058;2023-03-22T11:04:05;100133.59;;;17.46;48.47
67109;BME280;54027;50.786;7.058;2023-03-22T11:06:31;100109.03;;;17.12;47.14
67109;BME280;54027;50.786;7.058;2023-03-22T11:09:11;100132.09;;;17.03;47.85
67109;BME280;54027;50.786;7.058;2023-03-22T11:11:50;100139.75;;;16.87;48.14
67109;BME280;54027;50.786;7.058;2023-03-22T11:16:54;100164.22;;;16.64;49.30
67109;BME280;54027;50.786;7.058;2023-03-22T11:19:41;100184.16;;;16.65;50.21
67109;BME280;54027;50.786;7.058;2023-03-22T11:22:38;100179.91;;;16.63;50.53
67109;BME280;54027;50.786;7.058;2023-03-22T11:25:24;100173.72;;;16.45;50.21
67109;BME280;54027;50.786;7.058;2023-03-22T11:30:29;100177.19;;;16.46;50.17
67109;BME280;54027;50.786;7.058;2023-03-22T11:35:43;100151.75;;;16.51;48.67
67109;BME280;54027;50.786;7.058;2023-03-22T11:38:28;100152.00;;;16.45;49.01
67109;BME280;54027;50.786;7.058;2023-03-22T11:40:58;100166.16;;;16.39;49.53
67109;BME280;54027;50.786;7.058;2023-03-22T11:43:36;100182.72;;;16.38;50.59
67109;BME280;54027;50.786;7.058;2023-03-22T11:46:03;100179.56;;;16.30;50.46
67109;BME280;54027;50.786;7.058;2023-03-22T11:48:31;100203.03;;;16.30;51.08
67109;BME280;54027;50.786;7.058;2023-03-22T11:51:05;100204.13;;;16.24;50.99
67109;BME280;54027;50.786;7.058;2023-03-22T11:53:34;100169.63;;;16.18;49.45
67109;BME280;54027;50.786;7.058;2023-03-22T11:56:01;100175.41;;;16.04;49.86
67109;BME280;54027;50.786;7.058;2023-03-22T11:58:53;100173.13;;;15.97;49.71
67109;BME280;54027;50.786;7.058;2023-03-22T12:01:39;100200.44;;;15.87;51.68
67109;BME280;54027;50.786;7.058;2023-03-22T12:04:14;100209.63;;;15.97;51.89
67109;BME280;54027;50.786;7.058;2023-03-22T12:06:41;100198.03;;;16.04;51.16
67109;BME280;54027;50.786;7.058;2023-03-22T12:11:58;100184.94;;;16.05;50.81
67109;BME280;54027;50.786;7.058;2023-03-22T12:14:28;100183.91;;;16.09;51.23
67109;BME280;54027;50.786;7.058;2023-03-22T12:17:14;100179.41;;;15.91;50.78
67109;BME280;54027;50.786;7.058;2023-03-22T12:22:33;100174.31;;;15.66;49.84
67109;BME280;54027;50.786;7.058;2023-03-22T12:24:59;100172.19;;;15.53;50.67
67109;BME280;54027;50.786;7.058;2023-03-22T12:27:32;100206.59;;;15.39;51.71
67109;BME280;54027;50.786;7.058;2023-03-22T12:30:04;100195.53;;;15.33;51.02
67109;BME280;54027;50.786;7.058;2023-03-22T12:32:39;100194.13;;;15.24;51.24
67109;BME280;54027;50.786;7.058;2023-03-22T12:35:11;100210.03;;;15.16;52.38
67109;BME280;54027;50.786;7.058;2023-03-22T12:37:40;100216.91;;;15.17;52.80
67109;BME280;54027;50.786;7.058;2023-03-22T12:40:18;100220.66;;;15.10;53.01
67109;BME280;54027;50.786;7.058;2023-03-22T12:43:01;100225.00;;;15.10;53.49
67109;BME280;54027;50.786;7.058;2023-03-22T12:45:31;100225.91;;;15.09;53.62
67109;BME280;54027;50.786;7.058;2023-03-22T12:50:55;100213.53;;;15.15;53.33
67109;BME280;54027;50.786;7.058;2023-03-22T12:53:25;100237.47;;;15.25;54.33
67109;BME280;54027;50.786;7.058;2023-03-22T12:55:52;100221.41;;;15.37;53.61
67109;BME280;54027;50.786;7.058;2023-03-22T12:58:21;100222.44;;;15.33;53.51
67109;BME280;54027;50.786;7.058;2023-03-22T13:00:51;100210.53;;;15.26;53.51
67109;BME280;54027;50.786;7.058;2023-03-22T13:03:28;100249.78;;;15.20;55.31
67109;BME280;54027;50.786;7.058;2023-03-22T13:06:06;100247.47;;;15.12;54.85
67109;BME280;54027;50.786;7.058;2023-03-22T13:19:57;100260.19;;;14.71;55.51
67109;BME280;54027;50.786;7.058;2023-03-22T13:27:57;100266.63;;;14.85;56.27
67109;BME280;54027;50.786;7.058;2023-03-22T13:30:32;100272.38;;;14.95;56.33
67109;BME280;54027;50.786;7.058;2023-03-22T13:36:07;100284.06;;;15.08;57.53
67109;BME280;54027;50.786;7.058;2023-03-22T13:38:54;100290.78;;;15.15;58.64
67109;BME280;54027;50.786;7.058;2023-03-22T13:41:23;100288.13;;;15.16;57.67
67109;BME280;54027;50.786;7.058;2023-03-22T13:43:53;100275.00;;;15.19;57.05
67109;BME280;54027;50.786;7.058;2023-03-22T14:01:49;100261.03;;;14.97;59.13
67109;BME280;54027;50.786;7.058;2023-03-22T14:04:20;100240.09;;;15.00;57.24
67109;BME280;54027;50.786;7.058;2023-03-22T14:06:54;100241.53;;;15.09;57.56
67109;BME280;54027;50.786;7.058;2023-03-22T14:09:38;100225.91;;;15.09;57.25
67109;BME280;54027;50.786;7.058;2023-03-22T14:12:21;100212.84;;;15.10;56.15
67109;BME280;54027;50.786;7.058;2023-03-22T14:14:56;100213.44;;;15.17;56.67
67109;BME280;54027;50.786;7.058;2023-03-22T14:17:46;100242.81;;;15.22;57.59
67109;BME280;54027;50.786;7.058;2023-03-22T14:20:22;100237.59;;;15.22;58.43
67109;BME280;54027;50.786;7.058;2023-03-22T14:22:58;100213.44;;;15.17;57.34
67109;BME280;54027;50.786;7.058;2023-03-22T14:25:26;100222.97;;;15.18;57.06
67109;BME280;54027;50.786;7.058;2023-03-22T14:27:53;100212.84;;;15.10;56.82
67109;BME280;54027;50.786;7.058;2023-03-22T14:32:53;100216.81;;;15.20;57.35
67109;BME280;54027;50.786;7.058;2023-03-22T14:35:33;100236.28;;;15.10;57.92
67109;BME280;54027;50.786;7.058;2023-03-22T14:38:05;100233.81;;;15.06;58.14
67109;BME280;54027;50.786;7.058;2023-03-22T14:40:35;100225.16;;;15.05;57.97
67109;BME280;54027;50.786;7.058;2023-03-22T14:45:49;100234.88;;;15.00;58.28
67109;BME280;54027;50.786;7.058;2023-03-22T14:48:23;100230.78;;;14.93;58.29